createdAt,value
2022-10-24T00:09:50.316Z,9.40
2022-10-24T00:17:16.001Z,9.27
2022-10-24T00:24:22.367Z,9.27
2022-10-24T01:57:04.130Z,7.53
2022-10-24T02:46:29.841Z,7.47
2022-10-24T03:07:54.476Z,8.47
2022-10-24T03:14:01.936Z,7.23
2022-10-24T03:16:40.582Z,7.40
2022-10-24T03:19:25.908Z,6.50
2022-10-24T03:22:00.904Z,6.63
2022-10-24T03:24:54.850Z,6.77
2022-10-24T03:27:49.232Z,5.70
2022-10-24T03:30:19.867Z,6.33
2022-10-24T03:33:15.422Z,6.00
2022-10-24T03:36:01.833Z,5.70
2022-10-24T03:38:44.544Z,5.43
2022-10-24T03:41:34.081Z,5.67
2022-10-24T03:44:29.625Z,5.60
2022-10-24T04:02:20.959Z,5.47
2022-10-24T04:08:12.730Z,5.00
2022-10-24T04:58:02.297Z,4.83
2022-10-24T05:05:46.412Z,6.70
2022-10-24T05:21:14.838Z,4.50
2022-10-24T05:28:12.476Z,4.30
2022-10-24T05:48:30.663Z,4.23
2022-10-24T05:51:11.280Z,5.10
2022-10-24T05:55:08.461Z,4.93
2022-10-24T05:57:50.733Z,6.00
2022-10-24T06:01:07.813Z,4.73
2022-10-24T06:20:20.298Z,5.00
2022-10-24T06:27:06.832Z,5.37
2022-10-24T06:29:37.641Z,5.67
2022-10-24T06:35:31.148Z,5.20
2022-10-24T06:38:09.279Z,5.27
2022-10-24T06:43:43.942Z,5.50
2022-10-24T06:46:31.744Z,4.80
2022-10-24T06:49:13.099Z,4.83
2022-10-24T06:51:58.518Z,5.23
2022-10-24T06:55:11.925Z,5.20
2022-10-24T06:58:27.321Z,5.63
2022-10-24T07:01:21.597Z,5.30
2022-10-24T07:04:07.116Z,5.53
2022-10-24T07:06:46.416Z,5.33
2022-10-24T07:09:34.286Z,5.50
2022-10-24T07:14:57.346Z,5.00
2022-10-24T07:17:39.292Z,4.80
2022-10-24T07:20:28.506Z,5.13
2022-10-24T07:23:29.285Z,5.50
2022-10-24T07:26:22.223Z,5.30
2022-10-24T07:31:51.464Z,4.30
2022-10-24T07:34:45.853Z,5.60
2022-10-24T07:37:35.739Z,5.00
2022-10-24T07:40:39.283Z,5.63
2022-10-24T07:43:14.174Z,5.30
2022-10-24T07:45:53.333Z,4.63
2022-10-24T07:48:28.120Z,4.57
2022-10-24T07:51:08.112Z,5.43
2022-10-24T07:54:00.863Z,4.40
2022-10-24T08:00:17.051Z,4.30
2022-10-24T08:03:09.322Z,4.77
2022-10-24T08:06:28.648Z,4.87
2022-10-24T08:12:10.864Z,3.90
2022-10-24T08:14:53.525Z,4.00
2022-10-24T08:17:28.906Z,4.25
2022-10-24T08:20:17.175Z,4.50
2022-10-24T08:22:59.030Z,4.57
2022-10-24T08:28:30.166Z,4.37
2022-10-24T08:49:36.888Z,3.78
2022-10-24T08:55:44.391Z,3.95
2022-10-24T08:58:47.405Z,4.53
2022-10-24T09:01:45.051Z,3.80
2022-10-24T09:04:35.898Z,3.60
2022-10-24T09:07:19.489Z,3.70
2022-10-24T09:09:58.023Z,3.67
2022-10-24T09:13:37.211Z,3.88
2022-10-24T09:19:58.632Z,4.03
2022-10-24T09:22:44.159Z,4.10
2022-10-24T09:25:37.358Z,2.67
2022-10-24T09:28:09.613Z,3.08
2022-10-24T09:33:53.845Z,3.60
2022-10-24T09:36:25.468Z,2.75
2022-10-24T09:39:36.319Z,3.25
2022-10-24T09:42:49.265Z,3.13
2022-10-24T09:46:08.448Z,2.88
2022-10-24T10:01:46.519Z,3.47
2022-10-24T10:04:50.045Z,3.10
2022-10-24T10:08:30.938Z,3.35
2022-10-24T10:12:42.892Z,3.40
2022-10-24T10:16:50.629Z,2.42
2022-10-24T10:25:07.909Z,2.63
2022-10-24T10:31:01.188Z,3.20
2022-10-24T10:34:02.386Z,3.38
2022-10-24T10:37:28.737Z,2.50
2022-10-24T10:41:02.428Z,2.30
2022-10-24T10:44:20.707Z,3.13
2022-10-24T10:50:52.525Z,3.08
2022-10-24T10:53:54.274Z,2.78
2022-10-24T11:01:30.770Z,2.70
2022-10-24T11:17:12.719Z,2.67
2022-10-24T11:21:18.001Z,3.13
2022-10-24T11:25:00.953Z,2.83
2022-10-24T11:28:02.445Z,1.60
2022-10-24T11:30:48.591Z,2.50
2022-10-24T11:33:22.834Z,2.05
2022-10-24T11:36:05.865Z,2.00
2022-10-24T11:38:38.038Z,2.53
2022-10-24T11:41:26.428Z,2.25
2022-10-24T11:44:05.773Z,2.30
2022-10-24T11:46:57.790Z,2.40
2022-10-24T11:49:40.221Z,2.30
2022-10-24T11:56:42.295Z,2.33
2022-10-24T11:59:24.474Z,1.65
2022-10-24T12:02:16.147Z,2.55
2022-10-24T12:05:04.242Z,2.03
2022-10-24T12:08:03.324Z,2.80
2022-10-24T12:10:58.294Z,2.35
2022-10-24T12:13:47.761Z,2.53
2022-10-24T12:16:34.870Z,2.35
2022-10-24T12:19:08.810Z,2.50
2022-10-24T12:21:42.818Z,2.60
2022-10-24T12:24:25.503Z,2.30
2022-10-24T12:27:02.764Z,2.67
2022-10-24T12:29:35.142Z,2.88
2022-10-24T12:32:33.023Z,1.92
2022-10-24T12:35:29.879Z,3.33
2022-10-24T12:37:54.752Z,2.50
2022-10-24T12:40:52.388Z,2.20
2022-10-24T12:43:35.460Z,2.80
2022-10-24T12:46:40.385Z,2.75
2022-10-24T12:49:25.630Z,1.98
2022-10-24T12:52:10.155Z,2.72
2022-10-24T12:54:46.584Z,2.65
2022-10-24T13:00:29.726Z,2.65
2022-10-24T13:03:20.240Z,2.28
2022-10-24T13:06:15.307Z,2.47
2022-10-24T13:09:11.420Z,2.85
2022-10-24T13:12:01.900Z,3.08
2022-10-24T13:14:57.951Z,2.63
2022-10-24T13:18:41.450Z,2.38
2022-10-24T13:21:51.357Z,2.83
2022-10-24T13:28:36.389Z,2.80
2022-10-24T13:37:00.916Z,3.55
2022-10-24T13:40:47.003Z,2.22
2022-10-24T13:43:20.101Z,2.60
2022-10-24T13:45:58.982Z,3.08
2022-10-24T13:48:32.610Z,1.98
2022-10-24T13:51:09.571Z,2.67
2022-10-24T13:53:50.257Z,2.60
2022-10-24T13:56:24.485Z,3.10
2022-10-24T13:58:54.706Z,3.33
2022-10-24T14:01:32.213Z,3.72
2022-10-24T14:04:08.109Z,2.83
2022-10-24T14:06:40.334Z,2.20
2022-10-24T14:25:06.029Z,2.83
2022-10-24T14:29:07.148Z,3.00
2022-10-24T14:40:22.458Z,3.30
2022-10-24T14:42:58.136Z,2.65
2022-10-24T14:45:32.084Z,2.70
2022-10-24T14:48:06.106Z,3.13
2022-10-24T14:50:40.203Z,2.28
2022-10-24T14:53:28.779Z,2.80
2022-10-24T14:56:08.425Z,3.10
2022-10-24T14:58:40.495Z,2.88
2022-10-24T15:01:20.817Z,3.00
2022-10-24T15:04:02.237Z,3.15
2022-10-24T15:15:08.257Z,2.90
2022-10-24T15:18:14.778Z,3.17
2022-10-24T15:26:59.628Z,3.60
2022-10-24T15:34:10.638Z,3.05
2022-10-24T15:37:31.989Z,3.30
2022-10-24T15:51:41.855Z,2.70
2022-10-24T15:55:34.433Z,4.25
2022-10-24T15:59:41.381Z,2.35
2022-10-24T16:03:31.662Z,3.15
2022-10-24T16:24:49.371Z,3.10
2022-10-24T16:32:34.541Z,2.65
2022-10-24T16:48:15.566Z,2.50
2022-10-24T17:39:18.752Z,2.88
2022-10-24T23:47:51.952Z,4.50
2022-10-24T23:59:03.393Z,3.90
